Time;durP1;ratioP1;P1;durP2;ratioP2;P2;SDS_P1;SDS_P2;PMS_P1;PMS_P2;Temp;Humidity;BMP_temperature;BMP_pressure;BME280_temperature;BME280_humidity;BME280_pressure;Samples;Min_cycle;Max_cycle;Signal;HPM_P1;HPM_P2
2021/03/09 00:01:30;;;;;;;21.27;12.40;;;-1.70;99.90;;;;;;5073790;28;20181;-77
2021/03/09 00:03:56;;;;;;;22.43;13.40;;;-1.80;99.90;;;;;;5073526;28;20208;-77
2021/03/09 00:06:22;;;;;;;18.10;11.40;;;-1.80;99.90;;;;;;5073485;28;20612;-77
2021/03/09 00:08:47;;;;;;;21.30;12.70;;;-1.80;99.90;;;;;;5073404;28;20169;-77
2021/03/09 00:11:13;;;;;;;21.67;12.10;;;-1.80;99.90;;;;;;5055652;28;20618;-77
2021/03/09 00:13:39;;;;;;;22.10;12.43;;;-1.90;99.90;;;;;;5073404;28;20204;-77
2021/03/09 00:16:04;;;;;;;21.53;12.73;;;-1.80;99.90;;;;;;5073412;28;20195;-77
2021/03/09 00:18:30;;;;;;;22.20;13.50;;;-1.80;99.90;;;;;;5055231;28;20188;-77
2021/03/09 00:20:56;;;;;;;20.93;12.87;;;-1.80;99.90;;;;;;5073372;28;20184;-77
2021/03/09 00:23:21;;;;;;;18.67;12.77;;;-1.80;99.90;;;;;;5073279;28;20200;-77
2021/03/09 00:25:47;;;;;;;18.40;12.20;;;-1.80;99.90;;;;;;5073352;28;20185;-77
2021/03/09 00:28:12;;;;;;;24.10;13.60;;;-1.90;99.90;;;;;;5072711;28;20177;-77
2021/03/09 00:30:38;;;;;;;30.83;14.73;;;-1.90;99.90;;;;;;5055364;28;20230;-77
2021/03/09 00:33:04;;;;;;;27.50;14.23;;;-1.90;99.90;;;;;;5073305;28;20597;-77
2021/03/09 00:35:30;;;;;;;28.57;14.27;;;-2.10;99.90;;;;;;5055154;28;20704;-77
2021/03/09 00:37:55;;;;;;;28.93;14.20;;;-2.10;99.90;;;;;;5055290;28;20173;-77
2021/03/09 00:40:21;;;;;;;27.83;14.87;;;-2.10;99.90;;;;;;5055256;28;20264;-77
2021/03/09 00:42:47;;;;;;;29.37;15.57;;;-2.10;99.90;;;;;;5073392;28;20618;-77
2021/03/09 00:45:13;;;;;;;29.30;14.97;;;-2.10;99.90;;;;;;5073155;28;20220;-77
2021/03/09 00:47:38;;;;;;;25.07;14.43;;;-2.00;99.90;;;;;;5073022;28;20169;-77
2021/03/09 00:50:05;;;;;;;24.63;14.03;;;-2.00;99.90;;;;;;5073114;28;20410;-77
2021/03/09 00:52:30;;;;;;;24.87;14.43;;;-2.00;99.90;;;;;;5073093;28;20169;-77
2021/03/09 00:54:56;;;;;;;22.30;13.33;;;-2.00;99.90;;;;;;5054975;28;20433;-77
2021/03/09 00:57:21;;;;;;;24.40;13.77;;;-2.00;99.90;;;;;;5073010;28;20176;-77
2021/03/09 00:59:47;;;;;;;21.00;11.73;;;-2.00;99.90;;;;;;5055129;28;20184;-77
2021/03/09 01:02:13;;;;;;;22.53;13.13;;;-2.00;99.90;;;;;;5072964;28;20171;-77
2021/03/09 01:04:38;;;;;;;22.63;12.97;;;-2.10;99.90;;;;;;5072816;28;20204;-77
2021/03/09 01:07:04;;;;;;;24.00;13.83;;;-2.20;99.90;;;;;;5072854;28;20641;-77
2021/03/09 01:09:30;;;;;;;20.93;12.57;;;-2.20;99.90;;;;;;5054898;28;20179;-77
2021/03/09 01:11:55;;;;;;;34.00;13.23;;;-2.20;99.90;;;;;;5054981;28;20227;-77
2021/03/09 01:14:21;;;;;;;22.90;13.30;;;-2.20;99.90;;;;;;5054899;28;20247;-76
2021/03/09 01:16:46;;;;;;;23.00;13.03;;;-2.30;99.90;;;;;;5054925;28;20190;-77
2021/03/09 01:19:12;;;;;;;24.97;13.37;;;-2.30;99.90;;;;;;5055121;28;20176;-77
2021/03/09 01:21:38;;;;;;;22.60;12.47;;;-2.40;99.90;;;;;;5054860;28;20181;-77
2021/03/09 01:24:03;;;;;;;18.70;11.83;;;-2.40;99.90;;;;;;5072709;28;20243;-77
2021/03/09 01:26:29;;;;;;;21.03;12.03;;;-2.50;99.90;;;;;;5072692;28;20200;-77
2021/03/09 01:28:55;;;;;;;22.03;12.97;;;-2.40;99.90;;;;;;5072731;28;20244;-77
2021/03/09 01:31:21;;;;;;;19.40;12.00;;;-2.40;99.90;;;;;;5072754;28;20555;-77
2021/03/09 01:33:46;;;;;;;22.33;12.40;;;-2.40;99.90;;;;;;5054739;28;20198;-76
2021/03/09 01:36:12;;;;;;;25.20;13.93;;;-2.40;99.90;;;;;;5072586;28;20168;-77
2021/03/09 01:38:37;;;;;;;25.40;12.80;;;-2.40;99.90;;;;;;5072598;28;20175;-77
2021/03/09 01:41:03;;;;;;;21.97;12.37;;;-2.40;99.90;;;;;;5076063;28;20175;-77
2021/03/09 01:43:31;;;;;;;19.70;12.37;;;-2.40;99.90;;;;;;5057957;28;20207;-77
2021/03/09 01:45:57;;;;;;;19.77;11.97;;;-2.40;99.90;;;;;;5075996;28;20169;-77
2021/03/09 01:48:30;;;;;;;23.47;12.60;;;-2.40;99.90;;;;;;5057942;28;20418;-77
2021/03/09 01:50:55;;;;;;;19.40;12.07;;;-2.30;99.90;;;;;;5058071;28;20171;-77
2021/03/09 01:53:21;;;;;;;19.20;12.67;;;-2.30;99.90;;;;;;5075892;28;20422;-77
2021/03/09 01:55:47;;;;;;;22.43;12.30;;;-2.40;99.90;;;;;;5075988;28;20169;-77
2021/03/09 01:58:16;;;;;;;18.50;10.83;;;-2.40;99.90;;;;;;5076016;28;20169;-77
2021/03/09 02:00:42;;;;;;;21.10;10.90;;;-2.50;99.90;;;;;;5075689;28;20260;-77
2021/03/09 02:03:08;;;;;;;20.60;11.47;;;-2.50;99.90;;;;;;5075745;28;20558;-77
2021/03/09 02:05:34;;;;;;;19.03;10.70;;;-2.60;99.90;;;;;;5075912;28;20181;-77
2021/03/09 02:08:00;;;;;;;19.77;12.10;;;-2.60;99.90;;;;;;5075718;28;20222;-77
2021/03/09 02:10:27;;;;;;;22.27;12.83;;;-2.80;99.90;;;;;;5076005;28;20435;-77
2021/03/09 02:13:21;;;;;;;23.60;13.73;;;-2.80;99.90;;;;;;5075717;28;20227;-77
2021/03/09 02:16:11;;;;;;;23.17;12.37;;;-2.80;99.90;;;;;;5075625;28;20410;-77
2021/03/09 02:18:36;;;;;;;23.10;13.20;;;-2.80;99.90;;;;;;5057515;28;20914;-77
2021/03/09 02:21:39;;;;;;;25.63;13.23;;;-2.80;99.90;;;;;;5057535;28;20507;-77
2021/03/09 02:24:42;;;;;;;20.83;12.33;;;-2.90;99.90;;;;;;5075267;28;20204;-77
2021/03/09 02:27:35;;;;;;;21.03;11.83;;;-2.80;99.90;;;;;;5057373;28;20415;-76
2021/03/09 02:30:22;;;;;;;21.73;11.33;;;-2.80;99.90;;;;;;5057382;28;20526;-77
2021/03/09 02:33:24;;;;;;;22.20;11.40;;;-2.80;99.90;;;;;;5075594;28;20387;-77
2021/03/09 02:35:59;;;;;;;20.00;11.03;;;-2.80;99.90;;;;;;5057232;28;20417;-76
2021/03/09 02:38:28;;;;;;;18.97;10.90;;;-2.70;99.90;;;;;;5075043;28;20766;-77
2021/03/09 02:40:57;;;;;;;18.70;10.47;;;-2.80;99.90;;;;;;5057136;28;20415;-77
2021/03/09 02:43:26;;;;;;;20.13;11.17;;;-2.80;99.90;;;;;;5074899;28;20450;-77
2021/03/09 02:45:53;;;;;;;16.77;10.47;;;-2.80;99.90;;;;;;5057153;28;20410;-77
2021/03/09 02:48:24;;;;;;;17.60;10.47;;;-2.90;99.90;;;;;;5074736;28;20738;-77
2021/03/09 02:50:54;;;;;;;14.53;9.77;;;-2.90;99.90;;;;;;5056682;28;20410;-76
2021/03/09 02:53:22;;;;;;;23.67;10.47;;;-2.90;99.90;;;;;;5056775;28;20418;-77
2021/03/09 02:55:50;;;;;;;14.93;9.70;;;-2.90;99.90;;;;;;5074920;28;20938;-76
2021/03/09 02:58:19;;;;;;;16.40;9.53;;;-2.90;99.90;;;;;;5056725;28;20505;-76
2021/03/09 03:00:49;;;;;;;15.57;9.83;;;-2.90;99.90;;;;;;5074678;28;20419;-77
2021/03/09 03:03:15;;;;;;;15.67;9.63;;;-3.00;99.90;;;;;;5074535;28;20534;-77
2021/03/09 03:05:42;;;;;;;15.93;9.50;;;-3.00;99.90;;;;;;5074791;28;20421;-76
2021/03/09 03:08:09;;;;;;;16.07;9.90;;;-3.10;99.90;;;;;;5074464;28;20424;-76
2021/03/09 03:10:41;;;;;;;14.43;8.67;;;-3.20;99.90;;;;;;5074742;28;20437;-77
2021/03/09 03:13:09;;;;;;;14.67;9.37;;;-3.20;99.90;;;;;;5056749;28;20826;-77
2021/03/09 03:15:36;;;;;;;15.13;9.33;;;-3.20;99.90;;;;;;5074331;28;20443;-77
2021/03/09 03:18:05;;;;;;;14.50;9.57;;;-3.20;99.90;;;;;;5056341;28;20429;-76
2021/03/09 03:20:32;;;;;;;18.73;9.63;;;-3.20;99.90;;;;;;5056208;28;20808;-77
2021/03/09 03:22:58;;;;;;;16.87;10.70;;;-3.20;99.90;;;;;;5074207;28;20455;-76
2021/03/09 03:25:25;;;;;;;16.00;9.50;;;-3.10;99.90;;;;;;5074199;28;20458;-77
2021/03/09 03:27:52;;;;;;;17.13;9.27;;;-3.20;99.90;;;;;;5056120;28;20442;-76
2021/03/09 03:30:18;;;;;;;17.07;9.50;;;-3.10;99.90;;;;;;5056189;28;20493;-77
2021/03/09 03:32:45;;;;;;;16.30;9.37;;;-3.20;99.90;;;;;;5074106;28;20423;-77
2021/03/09 03:35:13;;;;;;;14.50;9.03;;;-3.20;99.90;;;;;;5047821;28;20439;-77
2021/03/09 03:37:41;;;;;;;13.83;9.20;;;-3.10;99.90;;;;;;5056018;28;20425;-77
2021/03/09 03:40:15;;;;;;;18.90;10.63;;;-3.20;99.90;;;;;;5073837;28;20427;-77
2021/03/09 03:42:42;;;;;;;17.37;9.63;;;-3.40;99.90;;;;;;5074054;28;20481;-76
2021/03/09 03:45:10;;;;;;;13.97;9.07;;;-3.50;99.90;;;;;;5073802;28;20435;-77
2021/03/09 03:47:37;;;;;;;15.20;9.47;;;-3.60;99.90;;;;;;5073723;28;20798;-76
2021/03/09 03:50:08;;;;;;;14.23;9.43;;;-3.60;99.90;;;;;;5073846;28;20924;-76
2021/03/09 03:53:14;;;;;;;13.67;8.60;;;-3.60;99.90;;;;;;5073651;28;20477;-77
2021/03/09 03:55:47;;;;;;;18.77;8.90;;;-3.50;99.90;;;;;;5064736;28;20425;-76
2021/03/09 03:58:30;;;;;;;15.43;9.23;;;-3.50;99.90;;;;;;5073553;28;20400;-76
2021/03/09 04:00:58;;;;;;;15.20;9.00;;;-3.60;99.90;;;;;;5055660;28;20488;-76
2021/03/09 04:03:25;;;;;;;16.23;9.47;;;-3.50;99.90;;;;;;5072824;28;20485;-77
2021/03/09 04:05:54;;;;;;;14.50;8.80;;;-3.50;99.90;;;;;;5073576;28;20403;-77
2021/03/09 04:08:20;;;;;;;18.47;9.77;;;-3.50;99.90;;;;;;5073298;28;20454;-76
2021/03/09 04:10:49;;;;;;;15.43;10.00;;;-3.50;99.90;;;;;;5073534;28;20505;-77
2021/03/09 04:13:16;;;;;;;18.03;10.07;;;-3.40;99.90;;;;;;5055416;28;20461;-76
2021/03/09 04:15:42;;;;;;;15.43;9.37;;;-3.40;99.90;;;;;;5055405;28;20419;-76
2021/03/09 04:18:10;;;;;;;15.93;9.77;;;-3.40;99.90;;;;;;5055280;28;20509;-76
2021/03/09 04:20:36;;;;;;;17.27;10.03;;;-3.40;99.90;;;;;;5073518;28;20183;-76
2021/03/09 04:23:03;;;;;;;17.23;10.93;;;-3.50;99.90;;;;;;5073286;28;20486;-77
2021/03/09 04:25:33;;;;;;;19.50;11.87;;;-3.50;99.90;;;;;;5073324;28;20525;-77
2021/03/09 04:27:59;;;;;;;18.63;10.43;;;-3.50;99.90;;;;;;5073190;28;20902;-76
2021/03/09 04:30:25;;;;;;;17.50;11.83;;;-3.60;99.90;;;;;;5073308;28;20430;-77
2021/03/09 04:32:51;;;;;;;20.73;11.30;;;-3.60;99.90;;;;;;5073303;28;20178;-76
2021/03/09 04:35:17;;;;;;;17.23;10.97;;;-3.60;99.90;;;;;;5073229;28;20992;-77
2021/03/09 04:37:43;;;;;;;19.73;11.03;;;-3.60;99.90;;;;;;5055108;28;20516;-76
2021/03/09 04:40:10;;;;;;;18.33;10.63;;;-3.50;99.90;;;;;;5073238;28;20537;-76
2021/03/09 04:42:36;;;;;;;17.13;10.17;;;-3.50;99.90;;;;;;5055243;28;20423;-76
2021/03/09 04:45:04;;;;;;;16.37;10.27;;;-3.50;99.90;;;;;;5073156;28;20930;-77
2021/03/09 04:47:32;;;;;;;17.47;11.07;;;-3.50;99.90;;;;;;5072952;28;20494;-76
2021/03/09 04:49:58;;;;;;;16.27;10.83;;;-3.50;99.90;;;;;;5073163;28;20406;-77
2021/03/09 04:52:27;;;;;;;17.10;10.20;;;-3.60;99.90;;;;;;5073136;28;20454;-77
2021/03/09 04:54:56;;;;;;;16.37;10.23;;;-3.60;99.90;;;;;;5071802;28;20459;-76
2021/03/09 04:57:38;;;;;;;20.87;11.00;;;-3.60;99.90;;;;;;5072905;28;20889;-76
2021/03/09 05:00:08;;;;;;;20.30;10.23;;;-3.60;99.90;;;;;;5055167;28;20931;-76
2021/03/09 05:02:33;;;;;;;14.47;9.83;;;-3.60;99.90;;;;;;5071713;28;20419;-76
2021/03/09 05:05:00;;;;;;;18.83;10.57;;;-3.60;99.90;;;;;;5072863;28;20453;-77
2021/03/09 05:07:25;;;;;;;18.33;10.50;;;-3.60;99.90;;;;;;5073104;28;20198;-76
2021/03/09 05:09:51;;;;;;;16.80;10.83;;;-3.60;99.90;;;;;;5055026;28;20414;-77
2021/03/09 05:12:17;;;;;;;17.83;11.57;;;-3.60;99.90;;;;;;5055002;28;20302;-77
2021/03/09 05:14:42;;;;;;;17.17;11.43;;;-3.60;99.90;;;;;;5075814;28;20200;-77
2021/03/09 05:17:08;;;;;;;24.23;13.07;;;-3.70;99.90;;;;;;5076690;28;20181;-76
2021/03/09 05:19:33;;;;;;;29.97;15.53;;;-3.70;99.90;;;;;;5058568;28;20668;-77
2021/03/09 05:21:59;;;;;;;24.57;14.00;;;-3.70;99.90;;;;;;5076539;28;20179;-76
2021/03/09 05:24:25;;;;;;;24.87;15.23;;;-3.60;99.90;;;;;;5076534;28;20209;-77
2021/03/09 05:26:50;;;;;;;23.47;13.27;;;-3.70;99.90;;;;;;5076794;28;20177;-77
2021/03/09 05:29:16;;;;;;;21.27;11.90;;;-3.60;99.90;;;;;;5076327;28;20169;-76
2021/03/09 05:31:41;;;;;;;18.43;10.80;;;-3.60;99.90;;;;;;5076664;28;20177;-77
2021/03/09 05:34:07;;;;;;;18.87;11.70;;;-3.60;99.90;;;;;;5058367;28;20230;-77
2021/03/09 05:36:33;;;;;;;18.00;11.63;;;-3.60;99.90;;;;;;5076311;28;20180;-77
2021/03/09 05:38:59;;;;;;;21.70;11.67;;;-3.60;99.90;;;;;;5076191;28;20232;-76
2021/03/09 05:41:25;;;;;;;16.53;10.63;;;-3.70;99.90;;;;;;5076290;28;20422;-77
2021/03/09 05:43:52;;;;;;;19.37;11.27;;;-3.70;99.90;;;;;;5076065;28;20217;-77
2021/03/09 05:46:18;;;;;;;21.77;12.83;;;-3.70;99.90;;;;;;5058245;28;20478;-77
2021/03/09 05:48:45;;;;;;;21.40;12.53;;;-3.60;99.90;;;;;;5075964;28;20465;-77
2021/03/09 05:51:11;;;;;;;20.63;11.73;;;-3.60;99.90;;;;;;5076512;28;20537;-77
2021/03/09 05:53:37;;;;;;;17.20;11.37;;;-3.60;99.90;;;;;;5075995;28;20442;-77
2021/03/09 05:56:07;;;;;;;20.33;11.93;;;-3.60;99.90;;;;;;5076297;28;20199;-77
2021/03/09 05:58:33;;;;;;;18.27;11.13;;;-3.60;99.90;;;;;;5057877;28;20231;-77
2021/03/09 06:00:59;;;;;;;19.50;12.00;;;-3.50;99.90;;;;;;5057765;28;20433;-77
2021/03/09 06:03:26;;;;;;;20.83;11.77;;;-3.50;99.90;;;;;;5057755;28;20455;-77
2021/03/09 06:05:52;;;;;;;21.67;12.37;;;-3.50;99.90;;;;;;5074657;28;20415;-77
2021/03/09 06:08:17;;;;;;;20.73;11.40;;;-3.50;99.90;;;;;;5057734;28;20576;-77
2021/03/09 06:10:44;;;;;;;19.53;11.50;;;-3.40;99.90;;;;;;5057867;28;20177;-77
2021/03/09 06:13:29;;;;;;;15.70;10.57;;;-3.40;99.90;;;;;;5075716;28;20173;-77
2021/03/09 06:15:55;;;;;;;19.10;11.37;;;-3.40;99.90;;;;;;5057419;28;20425;-77
2021/03/09 06:18:24;;;;;;;19.27;11.00;;;-3.40;99.90;;;;;;5075334;28;20419;-77
2021/03/09 06:21:07;;;;;;;19.57;11.47;;;-3.40;99.90;;;;;;5075590;28;20184;-77
2021/03/09 06:23:32;;;;;;;18.73;11.53;;;-3.30;99.90;;;;;;5003656;28;20511;-77
2021/03/09 06:25:58;;;;;;;21.27;11.87;;;-3.30;99.90;;;;;;5095020;28;20406;-77
2021/03/09 06:28:31;;;;;;;19.40;11.80;;;-3.20;99.90;;;;;;5095502;28;20255;-77
2021/03/09 06:31:01;;;;;;;16.03;10.87;;;-3.10;99.90;;;;;;5096346;28;20172;-76
2021/03/09 06:33:31;;;;;;;18.40;11.60;;;-3.10;99.90;;;;;;5094099;28;20410;-77
2021/03/09 06:35:57;;;;;;;19.80;11.20;;;-3.00;99.90;;;;;;5077369;28;20503;-77
2021/03/09 06:38:30;;;;;;;20.47;13.33;;;-2.90;99.90;;;;;;5077195;28;20483;-77
2021/03/09 06:41:18;;;;;;;19.00;11.93;;;-2.80;99.90;;;;;;5095484;28;20409;-77
2021/03/09 06:43:47;;;;;;;16.17;10.90;;;-2.70;99.90;;;;;;5076974;28;20469;-77
2021/03/09 06:46:21;;;;;;;21.77;12.20;;;-2.70;99.90;;;;;;5077165;28;20436;-77
2021/03/09 06:48:52;;;;;;;22.30;12.60;;;-2.70;99.90;;;;;;5077077;28;20900;-77
2021/03/09 06:51:30;;;;;;;33.77;12.60;;;-2.70;99.90;;;;;;5095594;28;20416;-77
2021/03/09 06:54:08;;;;;;;31.30;11.97;;;-2.60;99.90;;;;;;5095139;28;20440;-77
2021/03/09 06:56:37;;;;;;;21.10;11.97;;;-2.60;99.90;;;;;;5077060;28;20752;-77
2021/03/09 06:59:21;;;;;;;18.63;11.77;;;-2.50;99.90;;;;;;5094896;28;20453;-77
2021/03/09 07:02:22;;;;;;;22.67;10.57;;;-2.40;99.90;;;;;;5076945;28;20998;-77
2021/03/09 07:05:09;;;;;;;21.37;11.57;;;-2.30;99.90;;;;;;5095310;28;20466;-78
2021/03/09 07:07:39;;;;;;;20.57;11.07;;;-2.20;99.90;;;;;;5094672;28;20437;-77
2021/03/09 07:10:10;;;;;;;24.43;10.60;;;-2.10;99.90;;;;;;5095064;28;20395;-77
2021/03/09 07:12:38;;;;;;;17.40;11.20;;;-2.00;99.90;;;;;;5095628;28;20888;-77
2021/03/09 07:15:14;;;;;;;20.37;11.77;;;-1.90;99.90;;;;;;5095257;28;20425;-77
2021/03/09 07:17:41;;;;;;;18.10;10.87;;;-1.90;99.90;;;;;;5095069;28;20386;-77
2021/03/09 07:20:11;;;;;;;19.17;11.37;;;-1.90;99.90;;;;;;5095016;28;20417;-77
2021/03/09 07:22:38;;;;;;;17.00;10.77;;;-1.80;99.90;;;;;;5094823;28;20836;-77
2021/03/09 07:25:08;;;;;;;20.53;11.63;;;-1.80;99.90;;;;;;5094515;28;20441;-77
2021/03/09 07:27:37;;;;;;;22.47;12.03;;;-1.60;99.90;;;;;;5094643;28;20497;-77
2021/03/09 07:30:05;;;;;;;16.80;10.93;;;-1.50;99.90;;;;;;5076844;28;20414;-77
2021/03/09 07:32:31;;;;;;;19.20;11.50;;;-1.40;99.90;;;;;;5094995;28;20919;-77
2021/03/09 07:35:01;;;;;;;17.27;10.63;;;-1.40;99.90;;;;;;5095227;28;20469;-78
2021/03/09 07:37:26;;;;;;;18.73;11.10;;;-1.10;99.90;;;;;;5094241;28;20222;-77
2021/03/09 07:39:53;;;;;;;16.03;10.23;;;-1.00;99.90;;;;;;5095189;28;20414;-78
2021/03/09 07:42:19;;;;;;;25.00;10.90;;;-0.80;99.90;;;;;;5077528;28;20191;-78
2021/03/09 07:44:47;;;;;;;17.90;11.10;;;-0.40;99.90;;;;;;5078280;28;20530;-78
2021/03/09 07:47:14;;;;;;;15.30;10.90;;;0.00;99.90;;;;;;5097299;28;20460;-77
2021/03/09 07:49:41;;;;;;;15.47;10.33;;;0.40;99.90;;;;;;5079831;28;20448;-78
2021/03/09 07:52:15;;;;;;;15.43;10.33;;;0.90;99.90;;;;;;5097336;28;20413;-78
2021/03/09 07:55:03;;;;;;;20.77;9.53;;;1.20;99.90;;;;;;5096155;28;20429;-78
2021/03/09 07:57:34;;;;;;;14.43;9.33;;;1.60;99.90;;;;;;5078533;28;20802;-78
2021/03/09 08:00:06;;;;;;;20.60;10.07;;;1.90;99.90;;;;;;5097382;28;20483;-78
2021/03/09 08:02:59;;;;;;;20.03;9.30;;;2.40;99.90;;;;;;5097053;28;20187;-78
2021/03/09 08:05:26;;;;;;;22.37;9.30;;;2.80;99.90;;;;;;5097070;28;20438;-78
2021/03/09 08:08:04;;;;;;;15.13;9.93;;;3.40;99.90;;;;;;5096624;28;20430;-78
2021/03/09 08:10:30;;;;;;;16.57;10.30;;;3.70;99.90;;;;;;5097645;28;20509;-78
2021/03/09 08:13:07;;;;;;;18.00;10.07;;;3.60;99.90;;;;;;5098369;28;20172;-77
2021/03/09 08:15:37;;;;;;;15.77;9.43;;;3.50;99.90;;;;;;5097474;28;20199;-79
2021/03/09 08:18:21;;;;;;;13.63;9.57;;;3.00;99.90;;;;;;5079052;28;20641;-78
2021/03/09 08:20:56;;;;;;;12.60;10.00;;;3.30;99.90;;;;;;5097487;28;20210;-78
2021/03/09 08:23:34;;;;;;;15.63;11.13;;;3.70;99.90;;;;;;5097685;28;20219;-78
2021/03/09 08:26:04;;;;;;;16.33;10.60;;;4.10;99.90;;;;;;5079564;28;20211;-78
2021/03/09 08:28:38;;;;;;;14.47;10.90;;;4.30;99.90;;;;;;5098170;28;20606;-78
2021/03/09 08:31:13;;;;;;;13.13;9.60;;;4.50;99.90;;;;;;5097673;28;20602;-78
2021/03/09 08:33:55;;;;;;;15.47;10.93;;;4.60;99.90;;;;;;5079092;28;20197;-78
2021/03/09 08:36:23;;;;;;;14.00;10.53;;;4.70;99.90;;;;;;5079515;28;20168;-78
2021/03/09 08:39:12;;;;;;;13.00;10.40;;;4.50;99.90;;;;;;5078791;28;20182;-78
2021/03/09 08:41:38;;;;;;;15.07;10.10;;;4.50;99.90;;;;;;5074240;28;20197;-78
2021/03/09 08:44:17;;;;;;;13.03;9.70;;;4.40;99.90;;;;;;5097945;28;20205;-80
2021/03/09 08:46:52;;;;;;;14.63;10.07;;;4.20;99.90;;;;;;5080566;28;20209;-80
2021/03/09 08:49:42;;;;;;;14.13;9.87;;;4.30;99.90;;;;;;5083686;28;20178;-79
2021/03/09 08:52:17;;;;;;;25.07;10.33;;;4.10;99.90;;;;;;5102899;28;20231;-79
2021/03/09 08:54:49;;;;;;;17.53;10.03;;;3.90;99.90;;;;;;5085263;28;20245;-78
2021/03/09 08:57:15;;;;;;;13.87;9.17;;;4.00;99.90;;;;;;5102502;28;20504;-78
2021/03/09 08:59:43;;;;;;;15.60;11.03;;;4.30;99.90;;;;;;5084043;28;20186;-78
2021/03/09 09:02:15;;;;;;;13.33;9.83;;;4.70;99.90;;;;;;5084120;28;20183;-78
2021/03/09 09:04:43;;;;;;;15.47;10.57;;;5.00;99.90;;;;;;5102095;28;20205;-78
2021/03/09 09:07:21;;;;;;;17.83;10.50;;;5.10;99.90;;;;;;5084393;28;20203;-78
2021/03/09 09:09:47;;;;;;;14.47;10.40;;;4.90;99.90;;;;;;5102966;28;20255;-79
2021/03/09 09:12:33;;;;;;;13.23;10.07;;;5.00;99.90;;;;;;5084924;28;20188;-79
2021/03/09 09:15:09;;;;;;;13.40;10.30;;;5.00;99.90;;;;;;5084717;28;20195;-78
2021/03/09 09:17:35;;;;;;;18.47;10.27;;;5.30;99.90;;;;;;5102726;28;20160;-78
2021/03/09 09:20:12;;;;;;;15.50;10.07;;;5.30;99.90;;;;;;5102810;28;20187;-78
2021/03/09 09:22:38;;;;;;;12.80;10.33;;;5.20;99.90;;;;;;5102779;28;20186;-78
2021/03/09 09:25:10;;;;;;;13.47;10.07;;;5.50;99.90;;;;;;5084642;28;20279;-78
2021/03/09 09:27:45;;;;;;;12.67;10.10;;;5.90;99.90;;;;;;5084310;28;20207;-78
2021/03/09 09:30:18;;;;;;;13.27;9.60;;;6.10;99.90;;;;;;5084201;28;20175;-80
2021/03/09 09:32:49;;;;;;;13.03;10.03;;;5.90;99.90;;;;;;5102904;28;20222;-79
2021/03/09 09:35:15;;;;;;;15.03;10.50;;;6.00;99.90;;;;;;5102896;28;20219;-79
2021/03/09 09:37:45;;;;;;;11.50;9.63;;;6.50;99.90;;;;;;5102802;28;20172;-79
2021/03/09 09:40:13;;;;;;;13.97;9.67;;;6.50;99.90;;;;;;5102838;28;20173;-79
2021/03/09 09:42:38;;;;;;;12.27;9.97;;;6.50;99.90;;;;;;5103117;28;20219;-79
2021/03/09 09:45:05;;;;;;;13.83;10.80;;;6.80;99.90;;;;;;5084301;28;20196;-78
2021/03/09 09:47:31;;;;;;;11.70;10.03;;;6.80;99.90;;;;;;5102841;28;20255;-79
2021/03/09 09:49:57;;;;;;;14.03;10.60;;;6.90;99.90;;;;;;5102889;28;20192;-79
2021/03/09 09:52:22;;;;;;;16.53;10.30;;;7.00;99.90;;;;;;5102244;28;20231;-78
2021/03/09 09:54:53;;;;;;;15.83;11.17;;;7.30;99.90;;;;;;5101491;28;20677;-78
2021/03/09 09:57:19;;;;;;;15.17;10.97;;;7.30;99.90;;;;;;5101793;28;20168;-78
2021/03/09 09:59:45;;;;;;;14.80;10.67;;;7.30;99.90;;;;;;5100646;28;20521;-78
2021/03/09 10:02:20;;;;;;;13.67;10.73;;;7.50;99.90;;;;;;5102162;28;20372;-78
2021/03/09 10:04:46;;;;;;;13.23;10.27;;;7.40;99.90;;;;;;5101254;28;20703;-78
2021/03/09 10:07:17;;;;;;;11.37;10.07;;;7.00;99.90;;;;;;5100552;28;20186;-78
2021/03/09 10:10:09;;;;;;;14.57;10.50;;;6.40;99.90;;;;;;5101233;28;20170;-78
2021/03/09 10:12:37;;;;;;;15.27;10.73;;;6.30;99.90;;;;;;5101160;28;20173;-78
2021/03/09 10:15:05;;;;;;;18.17;10.00;;;5.80;99.90;;;;;;5082934;28;20656;-78
2021/03/09 10:17:31;;;;;;;11.73;9.73;;;5.50;99.90;;;;;;5100682;28;20175;-78
2021/03/09 10:19:57;;;;;;;11.23;9.23;;;5.60;99.90;;;;;;5082812;28;20173;-78
2021/03/09 10:22:25;;;;;;;13.23;9.90;;;5.80;99.90;;;;;;5100891;28;20169;-78
2021/03/09 10:24:51;;;;;;;13.57;10.50;;;5.70;99.90;;;;;;5100921;28;20215;-78
2021/03/09 10:27:27;;;;;;;11.10;9.87;;;6.00;99.90;;;;;;5100874;28;20267;-78
2021/03/09 10:29:56;;;;;;;12.87;9.60;;;6.20;99.90;;;;;;5100738;28;20168;-78
2021/03/09 10:32:22;;;;;;;11.90;9.53;;;6.60;99.90;;;;;;5100293;28;20200;-78
2021/03/09 10:34:52;;;;;;;11.80;9.93;;;6.70;99.90;;;;;;5100744;28;20201;-78
2021/03/09 10:37:35;;;;;;;13.60;9.93;;;6.90;99.90;;;;;;5100459;28;20180;-79
2021/03/09 10:40:14;;;;;;;12.03;10.13;;;7.20;99.90;;;;;;5100272;28;20168;-78
2021/03/09 10:42:43;;;;;;;13.07;10.83;;;7.00;99.90;;;;;;5081802;28;20173;-78
2021/03/09 10:45:20;;;;;;;11.70;9.90;;;6.30;99.90;;;;;;5082525;28;20275;-78
2021/03/09 10:47:56;;;;;;;13.50;11.00;;;6.10;99.90;;;;;;5100390;28;20173;-78
2021/03/09 10:50:24;;;;;;;13.10;11.20;;;6.30;99.90;;;;;;5100797;28;20172;-78
2021/03/09 10:52:50;;;;;;;13.77;10.90;;;6.60;99.90;;;;;;5082059;28;20183;-78
2021/03/09 10:55:15;;;;;;;13.27;11.23;;;6.30;99.90;;;;;;5100208;28;20275;-78
2021/03/09 10:57:41;;;;;;;13.33;11.23;;;6.30;99.90;;;;;;5100387;28;20594;-78
2021/03/09 11:00:11;;;;;;;13.47;11.47;;;6.60;99.90;;;;;;5081488;28;20183;-78
2021/03/09 11:02:36;;;;;;;14.63;11.27;;;6.30;99.90;;;;;;5100213;28;20168;-78
2021/03/09 11:05:03;;;;;;;15.30;12.23;;;6.40;99.90;;;;;;5098790;28;20200;-79
2021/03/09 11:07:29;;;;;;;13.87;11.53;;;6.70;99.90;;;;;;5081352;28;20192;-78
2021/03/09 11:09:54;;;;;;;13.97;11.33;;;7.10;99.90;;;;;;5099759;28;20164;-78
2021/03/09 11:12:20;;;;;;;14.40;11.53;;;7.10;99.90;;;;;;5099499;28;20208;-78
2021/03/09 11:14:46;;;;;;;15.43;12.30;;;6.80;99.90;;;;;;5098970;28;20192;-77
2021/03/09 11:17:12;;;;;;;15.47;12.10;;;7.00;99.90;;;;;;5098745;28;20254;-78
2021/03/09 11:19:38;;;;;;;15.67;12.67;;;7.40;99.90;;;;;;5099104;28;20184;-78
2021/03/09 11:22:03;;;;;;;14.77;11.47;;;7.40;99.90;;;;;;5099555;28;20181;-78
2021/03/09 11:24:29;;;;;;;15.90;12.80;;;7.40;99.90;;;;;;5099316;28;20200;-78
2021/03/09 11:27:01;;;;;;;14.17;11.77;;;7.70;99.90;;;;;;5099861;28;20172;-78
2021/03/09 11:29:32;;;;;;;16.63;11.63;;;7.80;99.90;;;;;;5099044;28;20149;-78
2021/03/09 11:31:57;;;;;;;15.73;12.07;;;8.10;99.90;;;;;;5080583;28;20164;-79
2021/03/09 11:34:24;;;;;;;13.77;11.77;;;8.40;99.90;;;;;;5081426;28;20205;-78
2021/03/09 11:36:50;;;;;;;15.27;12.40;;;8.60;99.90;;;;;;5098468;28;20285;-78
2021/03/09 11:39:16;;;;;;;15.13;11.90;;;8.20;99.90;;;;;;5099291;28;20179;-78
2021/03/09 11:41:42;;;;;;;14.90;12.23;;;7.30;99.90;;;;;;5099172;28;20179;-78
2021/03/09 11:44:08;;;;;;;16.47;12.60;;;7.50;99.90;;;;;;5099141;28;20232;-78
2021/03/09 11:46:35;;;;;;;13.40;11.60;;;7.80;99.90;;;;;;5081366;28;20263;-78
2021/03/09 11:49:00;;;;;;;15.30;12.07;;;8.00;99.90;;;;;;5099095;28;20236;-78
2021/03/09 11:51:27;;;;;;;18.57;12.63;;;7.80;99.90;;;;;;5080556;28;20204;-78
2021/03/09 11:53:53;;;;;;;14.27;11.63;;;7.60;99.90;;;;;;5098623;28;20615;-78
2021/03/09 11:56:18;;;;;;;14.63;11.33;;;7.70;99.90;;;;;;5098944;28;20180;-78
2021/03/09 11:58:44;;;;;;;18.17;12.40;;;8.20;99.90;;;;;;5079505;28;20204;-78
2021/03/09 12:01:09;;;;;;;15.97;12.43;;;8.30;99.90;;;;;;5098290;28;20180;-78
2021/03/09 12:03:35;;;;;;;16.73;12.07;;;8.10;99.90;;;;;;5098162;28;20322;-79
2021/03/09 12:06:01;;;;;;;16.77;11.70;;;8.00;99.90;;;;;;5098281;28;20236;-78
2021/03/09 12:08:26;;;;;;;16.53;11.10;;;8.20;99.90;;;;;;5098811;28;20176;-79
2021/03/09 12:10:52;;;;;;;16.07;12.00;;;8.40;99.90;;;;;;5096470;28;20184;-78
2021/03/09 12:13:18;;;;;;;18.30;11.83;;;8.70;99.90;;;;;;5096702;28;20180;-78
2021/03/09 12:15:44;;;;;;;15.53;12.07;;;8.70;99.90;;;;;;5077995;28;20630;-78
2021/03/09 12:18:10;;;;;;;13.20;10.93;;;8.50;99.90;;;;;;5097821;28;20241;-78
2021/03/09 12:20:36;;;;;;;17.10;11.50;;;8.40;99.90;;;;;;5111110;28;20172;-78
2021/03/09 12:23:02;;;;;;;14.40;11.17;;;8.80;99.90;;;;;;5096239;28;20218;-78
2021/03/09 12:25:27;;;;;;;14.90;11.37;;;8.90;99.90;;;;;;5098039;28;20204;-78
2021/03/09 12:27:53;;;;;;;14.80;11.57;;;9.20;99.90;;;;;;5118848;28;20663;-78
2021/03/09 12:30:19;;;;;;;16.13;11.73;;;9.60;99.70;;;;;;5107720;28;20176;-78
2021/03/09 12:32:45;;;;;;;15.30;11.00;;;9.70;97.10;;;;;;5080035;28;20639;-78
2021/03/09 12:35:11;;;;;;;14.47;11.37;;;9.40;96.70;;;;;;5095583;28;20253;-78
2021/03/09 12:37:37;;;;;;;18.43;11.90;;;9.70;96.60;;;;;;5073950;28;20584;-78
2021/03/09 12:40:03;;;;;;;13.33;10.10;;;10.10;94.40;;;;;;5058980;28;20238;-78
2021/03/09 12:42:29;;;;;;;15.03;11.27;;;9.80;90.20;;;;;;5058972;28;20181;-78
2021/03/09 12:44:55;;;;;;;16.03;11.93;;;9.40;91.50;;;;;;5076601;28;20297;-78